.
WxDataArchive / Data Records for 2015-04-13
2015-04-12 April 2015 2015-04-14

Data Records for Monday, 13 April 2015

Time	Temp	Chill	HIndex	Humid	Dewpt	 Wind 	HiWind	WindDir	Rain 	Barom
-----	----	-----	------	-----	-----	------	------	-------	-----	-----
00:00	56.0	56.0	56.0	55	40.1	0	0	---	0.00	30.021 
00:05	55.9	55.9	55.9	55	40.0	0	1	90	0.00	30.021 
00:10	55.7	55.7	55.7	56	40.2	0	1	90	0.00	30.021 
00:15	55.4	55.4	55.4	56	40.0	0	0	---	0.00	30.023 
00:20	55.3	55.3	55.3	57	40.3	0	0	---	0.00	30.023 
00:25	55.0	55.0	55.0	59	40.9	0	0	---	0.00	30.023 
00:30	54.8	54.8	54.8	60	41.2	0	0	---	0.00	30.020 
00:35	54.7	54.7	54.7	59	40.7	0	2	90	0.00	30.020 
00:40	54.8	54.8	54.8	59	40.7	0	1	90	0.00	30.020 
00:45	54.8	54.8	54.8	58	40.3	0	0	---	0.00	30.012 
00:50	55.0	55.0	55.0	59	40.9	0	0	---	0.00	30.012 
00:55	54.8	54.8	54.8	59	40.7	0	0	---	0.00	30.012 
01:00	54.7	54.7	54.7	59	40.7	0	0	---	0.00	30.018 
01:05	54.7	54.7	54.7	60	41.1	0	0	---	0.00	30.018 
01:10	54.7	54.7	54.7	62	41.9	0	1	90	0.00	30.018 
01:15	54.5	54.5	54.5	61	41.3	0	1	90	0.00	30.011 
01:20	54.5	54.5	54.5	60	40.9	0	0	---	0.00	30.011 
01:25	54.5	54.5	54.5	60	40.9	0	1	90	0.00	30.011 
01:30	54.5	54.5	54.5	60	40.9	0	2	90	0.00	30.006 
01:35	54.7	54.7	54.7	60	41.1	0	1	90	0.00	30.006 
01:40	54.7	54.7	54.7	61	41.5	0	0	---	0.00	30.006 
01:45	54.5	54.5	54.5	61	41.3	0	0	---	0.00	30.005 
01:50	54.4	54.4	54.4	62	41.7	0	1	90	0.00	30.005 
01:55	54.1	54.1	54.1	62	41.4	0	1	90	0.00	30.005 
02:00	53.9	53.9	53.9	62	41.2	0	1	90	0.00	30.002 
02:05	53.9	53.9	53.9	62	41.2	0	1	90	0.00	30.002 
02:10	53.9	53.9	53.9	62	41.2	0	1	90	0.00	30.002 
02:15	53.9	53.9	53.9	62	41.2	0	1	90	0.00	29.992 
02:20	53.8	53.8	53.8	62	41.1	0	2	90	0.00	29.992 
02:25	53.8	53.8	53.8	63	41.5	0	1	90	0.00	29.992 
02:30	53.8	53.8	53.8	63	41.5	0	1	90	0.00	29.990 
02:35	53.8	53.8	53.8	63	41.5	0	1	90	0.00	29.990 
02:40	53.9	53.9	53.9	63	41.6	0	0	---	0.00	29.990 
02:45	53.9	53.9	53.9	62	41.2	0	1	90	0.00	29.988 
02:50	53.9	53.9	53.9	63	41.6	0	1	90	0.00	29.988 
02:55	53.9	53.9	53.9	63	41.6	0	1	90	0.00	29.988 
03:00	53.9	53.9	53.9	63	41.6	0	1	90	0.00	29.982 
03:05	53.8	53.8	53.8	63	41.5	0	1	90	0.00	29.982 
03:10	53.8	53.8	53.8	63	41.5	0	1	90	0.00	29.982 
03:15	53.6	53.6	53.6	63	41.3	0	1	90	0.00	29.972 
03:20	53.5	53.5	53.5	64	41.6	0	1	90	0.00	29.972 
03:25	53.3	53.3	53.3	64	41.4	0	0	---	0.00	29.972 
03:30	53.2	53.2	53.2	64	41.3	0	0	---	0.00	29.973 
03:35	53.2	53.2	53.2	65	41.7	0	0	---	0.00	29.973 
03:40	53.1	53.1	53.1	65	41.6	0	0	---	0.00	29.973 
03:45	53.1	53.1	53.1	65	41.6	0	0	---	0.00	29.972 
03:50	53.1	53.1	53.1	65	41.6	0	0	---	0.00	29.972 
03:55	52.9	52.9	52.9	65	41.5	0	0	---	0.00	29.972 
04:00	52.9	52.9	52.9	65	41.5	0	0	---	0.00	29.973 
04:05	52.9	52.9	52.9	65	41.5	0	0	---	0.00	29.973 
04:10	52.9	52.9	52.9	66	41.9	0	0	---	0.00	29.973 
04:15	52.9	52.9	52.9	66	41.9	0	0	---	0.00	29.972 
04:20	52.9	52.9	52.9	66	41.9	0	1	90	0.00	29.972 
04:25	52.9	52.9	52.9	66	41.9	0	0	---	0.00	29.972 
04:30	52.9	52.9	52.9	67	42.2	0	0	---	0.00	29.967 
04:35	52.8	52.8	52.8	65	41.4	0	1	90	0.00	29.967 
04:40	52.8	52.8	52.8	66	41.8	0	0	---	0.00	29.967 
04:45	52.8	52.8	52.8	66	41.8	0	1	90	0.00	29.959 
04:50	52.6	52.6	52.6	64	40.8	0	3	90	0.00	29.959 
04:55	53.1	53.1	53.1	59	39.2	0	3	90	0.00	29.959 
05:00	53.8	53.8	53.8	56	38.5	0	1	90	0.00	29.945 
05:05	54.7	54.7	54.7	54	38.4	1	3	90	0.00	29.945 
05:10	55.4	55.4	55.4	52	38.1	1	3	90	0.00	29.945 
05:15	55.9	55.9	55.9	51	38.0	0	2	90	0.00	29.942 
05:20	56.2	56.2	56.2	50	37.8	0	2	90	0.00	29.942 
05:25	56.6	56.6	56.6	49	37.7	1	2	90	0.00	29.942 
05:30	56.9	56.9	56.9	49	37.9	1	3	90	0.00	29.941 
05:35	57.2	57.2	57.2	49	38.2	1	4	90	0.00	29.941 
05:40	57.0	57.0	57.0	50	38.5	0	1	90	0.00	29.941 
05:45	57.0	57.0	57.0	49	38.0	0	3	90	0.00	29.941 
05:50	57.2	57.2	57.2	48	37.7	0	2	90	0.00	29.941 
05:55	57.3	57.3	57.3	48	37.8	1	3	90	0.00	29.941 
06:00	57.3	57.3	57.3	49	38.3	0	1	90	0.00	29.941 
06:05	57.2	57.2	57.2	49	38.2	0	2	90	0.00	29.941 
06:10	56.9	56.9	56.9	50	38.5	0	2	90	0.00	29.941 
06:15	56.6	56.6	56.6	50	38.2	0	1	90	0.00	29.949 
06:20	56.5	56.5	56.5	51	38.6	0	2	90	0.00	29.949 
06:25	56.6	56.6	56.6	50	38.2	1	3	90	0.00	29.949 
06:30	56.7	56.7	56.7	50	38.3	1	5	90	0.00	29.943 
06:35	57.0	57.0	57.0	51	39.1	0	2	90	0.00	29.943 
06:40	57.0	57.0	57.0	50	38.5	0	1	90	0.00	29.943 
06:45	57.2	57.2	57.2	51	39.2	0	3	90	0.00	29.944 
06:50	57.3	57.3	57.3	50	38.8	0	4	90	0.00	29.944 
06:55	57.6	57.6	57.6	50	39.1	0	2	90	0.00	29.944 
07:00	57.8	57.8	57.8	50	39.3	0	1	90	0.00	29.954 
07:05	58.0	58.0	58.0	49	38.9	0	2	90	0.00	29.954 
07:10	58.1	58.1	58.1	50	39.6	0	2	90	0.00	29.954 
07:15	58.3	58.3	58.3	49	39.2	0	3	90	0.00	29.957 
07:20	58.3	58.3	58.3	50	39.7	1	4	90	0.00	29.957 
07:25	58.3	58.3	58.3	50	39.7	0	3	248	0.00	29.957 
07:30	58.3	58.3	58.3	51	40.3	0	3	248	0.00	29.957 
07:35	58.1	58.1	58.1	52	40.6	0	2	248	0.00	29.957 
07:40	58.1	58.1	58.1	52	40.6	0	2	248	0.00	29.957 
07:45	58.1	58.1	58.1	53	41.1	0	1	248	0.00	29.956 
07:50	58.0	58.0	58.0	54	41.4	0	1	248	0.00	29.956 
07:55	58.0	58.0	58.0	54	41.4	0	2	248	0.00	29.956 
08:00	58.3	58.3	58.3	55	42.2	0	3	248	0.00	29.952 
08:05	58.7	58.7	58.7	54	42.1	0	1	248	0.00	29.952 
08:10	59.0	59.0	59.0	54	42.4	0	3	248	0.00	29.952 
08:15	59.3	59.3	59.3	54	42.7	0	2	22	0.00	29.944 
08:20	59.6	59.6	59.6	55	43.4	0	2	22	0.00	29.944 
08:25	59.9	59.9	59.9	55	43.7	0	1	22	0.00	29.944 
08:30	60.2	60.2	60.2	54	43.5	1	4	270	0.00	29.941 
08:35	60.5	60.5	60.5	56	44.7	1	3	270	0.00	29.941 
08:40	60.9	60.9	60.9	56	45.1	1	3	270	0.00	29.941 
08:45	61.6	61.6	61.6	56	45.7	1	2	270	0.00	29.938 
08:50	62.3	62.3	62.3	56	46.4	1	3	270	0.00	29.938 
08:55	62.7	62.7	62.7	56	46.8	1	3	248	0.00	29.938 
09:00	63.2	63.2	63.2	57	47.7	1	5	248	0.00	29.935 
09:05	64.2	64.2	64.2	57	48.6	2	6	270	0.00	29.935 
09:10	65.2	65.2	65.2	56	49.1	2	7	248	0.00	29.935 
09:15	65.8	65.8	65.8	56	49.7	2	5	270	0.00	29.938 
09:20	66.3	66.3	66.3	55	49.6	1	4	270	0.00	29.938 
09:25	66.3	66.3	66.3	55	49.6	1	5	248	0.00	29.938 
09:30	66.3	66.3	66.3	56	50.1	2	4	248	0.00	29.937 
09:35	66.1	66.1	66.1	57	50.4	1	6	248	0.00	29.937 
09:40	66.6	66.6	66.6	57	50.9	2	5	270	0.00	29.937 
09:45	67.4	67.4	67.4	57	51.6	1	4	270	0.00	29.933 
09:50	67.9	67.9	67.9	55	51.1	1	5	270	0.00	29.933 
09:55	67.8	67.8	67.8	56	51.5	2	4	270	0.00	29.933 
10:00	67.6	67.6	67.6	57	51.8	1	9	248	0.00	29.922 
10:05	67.8	67.8	67.8	58	52.5	2	7	248	0.00	29.922 
10:10	68.3	68.3	68.3	58	52.9	2	6	248	0.00	29.922 
10:15	68.3	68.3	68.3	58	52.9	2	7	248	0.00	29.915 
10:20	68.3	68.3	68.3	59	53.4	2	13	248	0.00	29.915 
10:25	68.4	68.4	68.4	60	54.0	3	7	270	0.00	29.915 
10:30	68.4	68.4	68.4	60	54.0	3	9	248	0.00	29.920 
10:35	68.6	68.6	68.6	61	54.6	2	10	270	0.00	29.920 
10:40	68.9	68.9	68.9	61	54.9	2	5	248	0.00	29.920 
10:45	69.1	69.1	69.1	60	54.6	3	12	248	0.00	29.921 
10:50	69.4	69.4	69.4	62	55.8	3	16	248	0.00	29.921 
10:55	69.6	69.6	69.6	63	56.4	3	12	248	0.00	29.921 
11:00	69.6	69.6	69.6	63	56.4	4	11	248	0.00	29.935 
11:05	69.3	69.3	69.3	64	56.6	3	11	248	0.00	29.935 
11:10	68.8	68.8	68.8	64	56.1	3	7	270	0.00	29.935 
11:15	68.3	68.3	68.3	65	56.1	4	11	248	0.00	29.948 
11:20	68.1	68.1	68.1	66	56.3	2	6	248	0.00	29.948 
11:25	67.9	67.9	67.9	67	56.5	2	6	248	0.00	29.948 
11:30	67.6	67.6	67.6	73	58.6	2	9	248	0.00	29.952 
11:35	66.9	66.9	66.9	74	58.3	2	10	270	0.00	29.952 
11:40	66.6	66.6	66.6	75	58.4	1	6	270	0.00	29.952 
11:45	66.9	66.9	66.9	75	58.7	1	4	248	0.00	29.947 
11:50	67.6	67.6	67.6	74	59.0	1	3	248	0.00	29.947 
11:55	67.9	67.9	67.9	72	58.5	2	5	248	0.00	29.947 
12:00	68.3	68.3	68.3	72	58.9	1	3	248	0.00	29.936 
12:05	68.6	68.6	68.6	73	59.6	2	7	248	0.00	29.936 
12:10	68.4	68.4	68.4	73	59.4	2	9	248	0.00	29.936 
12:15	68.4	68.4	68.4	73	59.4	2	4	248	0.00	29.942 
12:20	68.4	68.4	68.4	73	59.4	1	4	270	0.00	29.942 
12:25	68.6	68.6	68.6	73	59.6	1	4	248	0.00	29.942 
12:30	68.4	68.4	68.4	72	59.0	3	10	248	0.00	29.938 
12:35	68.3	68.3	68.3	72	58.9	2	6	248	0.00	29.938 
12:40	68.1	68.1	68.1	72	58.7	3	7	248	0.00	29.938 
12:45	67.8	67.8	67.8	71	58.0	3	10	248	0.00	29.941 
12:50	67.6	67.6	67.6	72	58.2	3	6	248	0.00	29.941 
12:55	67.3	67.3	67.3	73	58.3	3	7	248	0.00	29.941 
13:00	66.4	66.4	66.4	76	58.6	4	10	248	0.01	29.954 
13:05	65.0	65.0	65.0	80	58.7	3	8	248	0.01	29.954 
13:10	64.0	64.0	64.0	83	58.7	2	6	248	0.02	29.954 
13:15	63.5	63.5	63.5	86	59.2	2	9	248	0.01	29.956 
13:20	63.4	63.4	63.4	86	59.1	3	7	248	0.00	29.956 
13:25	63.7	63.7	63.7	88	60.1	2	4	248	0.00	29.956 
13:30	64.2	64.2	64.2	86	59.9	3	7	248	0.00	29.950 
13:35	64.7	64.7	64.7	86	60.4	1	4	248	0.00	29.950 
13:40	64.7	64.7	64.7	83	59.4	2	5	270	0.00	29.950 
13:45	64.8	64.8	64.8	81	58.8	3	7	248	0.00	29.946 
13:50	65.0	65.0	65.0	80	58.7	3	9	248	0.00	29.946 
13:55	65.5	65.5	65.5	77	58.1	4	7	248	0.00	29.946 
14:00	65.0	65.0	65.0	76	57.2	4	9	270	0.00	29.948 
14:05	64.8	64.8	64.8	77	57.4	3	10	248	0.00	29.948 
14:10	64.8	64.8	64.8	77	57.4	3	9	270	0.00	29.948 
14:15	64.7	64.7	64.7	76	57.0	4	7	270	0.00	29.943 
14:20	64.7	64.7	64.7	75	56.6	4	7	270	0.00	29.943 
14:25	64.3	64.3	64.3	76	56.6	4	7	270	0.00	29.943 
14:30	64.0	64.0	64.0	77	56.6	3	9	248	0.00	29.955 
14:35	63.7	63.7	63.7	78	56.7	2	5	248	0.00	29.955 
14:40	63.5	63.5	63.5	79	56.9	3	5	248	0.00	29.955 
14:45	63.4	63.4	63.4	80	57.1	3	10	270	0.00	29.969 
14:50	63.1	63.1	63.1	80	56.8	3	9	248	0.00	29.969 
14:55	62.6	62.6	62.6	81	56.7	3	7	270	0.00	29.969 
15:00	62.6	62.6	62.6	81	56.7	2	4	270	0.00	29.978 
15:05	62.6	62.6	62.6	81	56.7	3	5	270	0.00	29.978 
15:10	62.6	62.6	62.6	81	56.7	2	5	270	0.00	29.978 
15:15	62.7	62.7	62.7	81	56.8	2	5	270	0.00	29.974 
15:20	63.1	63.1	63.1	81	57.2	1	3	270	0.00	29.974 
15:25	63.2	63.2	63.2	78	56.2	3	6	248	0.00	29.974 
15:30	63.4	63.4	63.4	79	56.8	3	10	270	0.00	29.987 
15:35	63.5	63.5	63.5	78	56.5	3	6	248	0.00	29.987 
15:40	63.9	63.9	63.9	77	56.5	2	5	292	0.00	29.987 
15:45	64.0	64.0	64.0	77	56.6	2	7	248	0.00	29.977 
15:50	64.2	64.2	64.2	76	56.5	2	5	248	0.00	29.977 
15:55	64.2	64.2	64.2	75	56.1	1	4	292	0.00	29.977 
16:00	64.2	64.2	64.2	74	55.7	2	5	248	0.00	29.974 
16:05	64.3	64.3	64.3	73	55.5	3	7	248	0.00	29.974 
16:10	64.5	64.5	64.5	74	56.0	2	5	270	0.00	29.974 
16:15	64.7	64.7	64.7	74	56.2	2	5	248	0.00	29.972 
16:20	64.7	64.7	64.7	73	55.8	2	5	248	0.00	29.972 
16:25	64.7	64.7	64.7	73	55.8	2	6	248	0.00	29.972 
16:30	64.8	64.8	64.8	73	55.9	2	5	248	0.00	29.976 
16:35	64.8	64.8	64.8	73	55.9	2	5	248	0.00	29.976 
16:40	65.0	65.0	65.0	73	56.1	2	6	248	0.00	29.976 
16:45	65.3	65.3	65.3	71	55.6	2	6	270	0.00	29.981 
16:50	64.7	64.7	64.7	69	54.3	3	6	270	0.00	29.981 
16:55	64.0	64.0	64.0	68	53.2	2	5	338	0.00	29.981 
17:00	64.2	64.2	64.2	67	53.0	2	5	315	0.00	29.987 
17:05	64.8	64.8	64.8	63	51.9	1	5	292	0.00	29.987 
17:10	65.8	65.8	65.8	55	49.2	3	7	270	0.00	29.987 
17:15	66.0	66.0	66.0	55	49.4	2	5	270	0.00	29.982 
17:20	65.8	65.8	65.8	56	49.7	4	10	292	0.00	29.982 
17:25	65.8	65.8	65.8	55	49.2	3	7	292	0.00	29.982 
17:30	65.8	65.8	65.8	55	49.2	2	4	270	0.00	29.994 
17:35	66.0	66.0	66.0	55	49.4	2	6	292	0.00	29.994 
17:40	66.3	66.3	66.3	54	49.1	2	6	292	0.00	29.994 
17:45	66.0	66.0	66.0	53	48.4	3	6	315	0.00	30.002 
17:50	65.6	65.6	65.6	50	46.5	2	5	0	0.00	30.002 
17:55	65.8	65.8	65.8	48	45.6	3	9	270	0.00	30.002 
18:00	66.0	66.0	66.0	47	45.2	3	6	292	0.00	30.014 
18:05	65.5	65.5	65.5	45	43.6	3	6	292	0.00	30.014 
18:10	65.0	65.0	65.0	44	42.6	3	6	292	0.00	30.014 
18:15	64.5	64.5	64.5	43	41.5	2	5	292	0.00	30.021 
18:20	64.2	64.2	64.2	43	41.2	2	7	338	0.00	30.021 
18:25	64.3	64.3	64.3	45	42.5	2	6	315	0.00	30.021 
18:30	64.2	64.2	64.2	45	42.4	2	5	292	0.00	30.033 
18:35	64.3	64.3	64.3	46	43.1	1	4	292	0.00	30.033 
18:40	64.3	64.3	64.3	44	41.9	2	6	292	0.00	30.033 
18:45	64.2	64.2	64.2	41	40.0	3	6	0	0.00	30.036 
18:50	63.9	63.9	63.9	41	39.7	2	6	292	0.00	30.036 
18:55	63.5	63.5	63.5	40	38.7	3	7	292	0.00	30.036 
19:00	63.7	63.7	63.7	40	38.9	2	6	292	0.00	30.038 
19:05	63.5	63.5	63.5	39	38.1	3	9	315	0.00	30.038 
19:10	63.2	63.2	63.2	40	38.5	3	9	270	0.00	30.038 
19:15	63.2	63.2	63.2	39	37.8	2	5	270	0.00	30.039 
19:20	63.1	63.1	63.1	40	38.4	1	4	292	0.00	30.039 
19:25	62.9	62.9	62.9	37	36.2	2	6	315	0.00	30.039 
19:30	62.7	62.7	62.7	36	35.4	2	9	292	0.00	30.052 
19:35	62.6	62.6	62.6	36	35.3	2	5	292	0.00	30.052 
19:40	62.4	62.4	62.4	34	33.7	3	7	0	0.00	30.052 
19:45	62.3	62.3	62.3	34	33.6	3	7	338	0.00	30.053 
19:50	62.0	62.0	62.0	34	33.3	3	6	315	0.00	30.053 
19:55	61.8	61.8	61.8	35	33.9	2	10	338	0.00	30.053 
20:00	61.5	61.5	61.5	35	33.6	2	6	315	0.00	30.061 
20:05	61.2	61.2	61.2	35	33.3	2	5	315	0.00	30.061 
20:10	60.9	60.9	60.9	36	33.8	1	6	270	0.00	30.061 
20:15	60.5	60.5	60.5	37	34.1	1	4	315	0.00	30.062 
20:20	60.2	60.2	60.2	37	33.8	0	2	292	0.00	30.062 
20:25	59.8	59.8	59.8	37	33.5	0	2	292	0.00	30.062 
20:30	59.5	59.5	59.5	37	33.2	0	2	270	0.00	30.067 
20:35	59.2	59.2	59.2	38	33.6	0	3	270	0.00	30.067 
20:40	58.9	58.9	58.9	39	34.0	0	1	292	0.00	30.067 
20:45	58.4	58.4	58.4	39	33.5	0	1	292	0.00	30.073 
20:50	58.1	58.1	58.1	39	33.3	0	0	---	0.00	30.073 
20:55	57.8	57.8	57.8	40	33.6	0	0	---	0.00	30.073 
21:00	57.3	57.3	57.3	41	33.8	0	0	---	0.00	30.083 
21:05	56.9	56.9	56.9	41	33.4	0	0	---	0.00	30.083 
21:10	56.6	56.6	56.6	42	33.8	0	0	---	0.00	30.083 
21:15	56.5	56.5	56.5	43	34.3	0	1	292	0.00	30.081 
21:20	56.3	56.3	56.3	43	34.1	0	1	292	0.00	30.081 
21:25	56.3	56.3	56.3	43	34.1	0	1	292	0.00	30.081 
21:30	56.2	56.2	56.2	43	34.0	0	0	---	0.00	30.088 
21:35	56.0	56.0	56.0	43	33.8	0	0	---	0.00	30.088 
21:40	55.7	55.7	55.7	44	34.1	0	0	---	0.00	30.088 
21:45	55.4	55.4	55.4	48	36.0	0	0	---	0.00	30.089 
21:50	54.8	54.8	54.8	48	35.5	0	0	---	0.00	30.089 
21:55	54.4	54.4	54.4	48	35.1	0	0	---	0.00	30.089 
22:00	53.9	53.9	53.9	49	35.2	0	0	---	0.00	30.094 
22:05	53.5	53.5	53.5	49	34.8	0	0	---	0.00	30.094 
22:10	53.1	53.1	53.1	50	35.0	0	0	---	0.00	30.094 
22:15	52.6	52.6	52.6	50	34.5	0	0	---	0.00	30.095 
22:20	52.2	52.2	52.2	51	34.6	0	0	---	0.00	30.095 
22:25	51.7	51.7	51.7	54	35.6	0	0	---	0.00	30.095 
22:30	51.4	51.4	51.4	54	35.3	0	0	---	0.00	30.099 
22:35	51.1	51.1	51.1	55	35.5	0	0	---	0.00	30.099 
22:40	50.8	50.8	50.8	56	35.7	0	0	---	0.00	30.099 
22:45	50.4	50.4	50.4	57	35.7	0	0	---	0.00	30.107 
22:50	50.1	50.1	50.1	59	36.3	0	0	---	0.00	30.107 
22:55	49.9	49.9	49.9	60	36.6	0	0	---	0.00	30.107 
23:00	49.8	49.8	49.8	61	36.9	0	0	---	0.00	30.108 
23:05	49.5	49.5	49.5	61	36.6	0	0	---	0.00	30.108 
23:10	49.4	49.4	49.4	62	36.9	0	0	---	0.00	30.108 
23:15	49.2	49.2	49.2	61	36.3	0	0	---	0.00	30.118 
23:20	49.1	49.1	49.1	62	36.6	0	0	---	0.00	30.118 
23:25	48.9	48.9	48.9	62	36.5	0	0	---	0.00	30.118 
23:30	48.8	48.8	48.8	62	36.4	0	0	---	0.00	30.120 
23:35	48.6	48.6	48.6	62	36.2	0	0	---	0.00	30.120 
23:40	48.5	48.5	48.5	63	36.5	0	0	---	0.00	30.120 
23:45	48.3	48.3	48.3	64	36.7	0	0	---	0.00	30.122 
23:50	48.3	48.3	48.3	65	37.1	0	0	---	0.00	30.122 
23:55	48.2	48.2	48.2	66	37.4	0	0	---	0.00	30.122 

CoCoRaHS
IN-AL-39
A2 Web Hosting
Creative Commons License
GoDaddy
search engine by freefind advanced

loaded 2018-11-14 00:38:46 • last modified 2010-11-18 10:43:29
Privacy PolicyDisclaimer
• wx.awcolley.com is powered by PmWiki v.2002016 •
• all content (unless otherwise noted) © 2018 A W Colley